• Join FlightAware (Why Join?)
  • Login
  • US Flag GB Flag 
17:00 EST


 

Airport Tracker/Info


-or-


 

Live Flight TrackerFlight Track Log ✈ N242LF ✈ 30-Nov-2013 ✈ KBFI - KMSO

Flight Track Log - Related Links

Times and Time Zones

All times are in EST time to prevent confusion due to time zone crossing. See the N242LF flight status page for this flight to view local times or setup timezone preferences in your user account.

Time Position Orientation Groundspeed Altitude Reporting Facility
EST Latitude Longitude Course Direction KTS MPH feet Rate Location/Type
06:50 47.5225 -122.2950 155° Southeast 121 139 800  Level Seattle Center
06:50 47.5172 -122.2914 155° Southeast 122 140 1,200 2,760 Climbing Seattle Center
06:50 47.5161 -122.2892 127° Southeast 118 136 1,400 2,040 Climbing Seattle Center
06:51 47.4894 -122.2578 141° Southeast 121 139 3,500 2,100 Climbing Seattle Center
06:52 47.4781 -122.2019 107° East 147 169 5,600 2,040 Climbing Seattle Center
06:53 47.4733 -122.1381 96° East 157 181 7,600 1,920 Climbing Seattle Center
06:54 47.4658 -122.0689 99° East 169 194 9,500 1,860 Climbing Seattle Center
06:55 47.4597 -121.9953 97° East 179 206 11,400 1,680 Climbing Seattle Center
06:56 47.4592 -121.9219 91° East 179 206 12,900 1,380 Climbing Seattle Center
06:57 47.4589 -121.8450 90° East 186 214 14,200 1,080 Climbing Seattle Center
06:58 47.4583 -121.7619 91° East 204 235 15,100 360 Climbing Seattle Center
06:59 47.4561 -121.6594 92° East 253 291 15,000 60 Descending Seattle Center
07:00 47.4567 -121.5467 90° East 275 316 15,300 1,200 Climbing Seattle Center
07:01 47.4544 -121.4472 92° East 237 273 17,400 1,320 Climbing Seattle Center
07:02 47.4583 -121.3733 86° East 192 221 18,000 600 Climbing Seattle Center
07:03 47.4519 -121.2872 96° East 216 249 18,600 720 Climbing Seattle Center
07:04 47.4492 -121.2014 93° East 211 243 19,500 840 Climbing Seattle Center
07:05 47.4489 -121.1131 90° East 214 246 20,400 840 Climbing Seattle Center
07:06 47.4475 -121.0253 91° East 215 247 21,200 300 Climbing Seattle Center
07:07 47.4447 -120.9272 92° East 238 274 21,000 -120 Descending Seattle Center
07:08 47.4456 -120.8153 89° East 260 299 21,000  Level Seattle Center
07:09 47.4433 -120.7042 92° East 270 311 21,000  Level Seattle Center
07:10 47.4414 -120.5906 91° East 277 319 21,000  Level Seattle Center
07:11 47.4397 -120.4786 91° East 275 316 21,000  Level Seattle Center
07:12 47.4378 -120.3675 91° East 273 314 21,000  Level Seattle Center
07:13 47.4336 -120.2547 93° East 275 316 21,000  Level Seattle Center
07:14 47.4325 -120.1403 91° East 278 320 21,000  Level Seattle Center
07:15 47.4297 -120.0258 92° East 279 321 21,000  Level Seattle Center
07:16 47.4269 -119.9111 92° East 280 322 21,000  Level Seattle Center
07:17 47.4244 -119.8000 92° East 273 314 21,000  Level Seattle Center
07:18 47.4214 -119.6872 92° East 276 318 21,000  Level Seattle Center
07:19 47.4189 -119.5753 92° East 275 316 21,000  Level Seattle Center
07:20 47.4156 -119.4611 92° East 277 319 21,000  Level Seattle Center
07:21 47.4125 -119.3489 92° East 276 318 21,000  Level Seattle Center
07:22 47.4089 -119.2369 93° East 275 316 21,000  Level Seattle Center
07:23 47.4053 -119.1250 93° East 274 315 21,000  Level Seattle Center
07:24 47.4025 -119.0131 92° East 275 316 21,000  Level Seattle Center
07:25 47.3978 -118.9003 93° East 276 318 21,000  Level Seattle Center
07:26 47.3953 -118.7878 92° East 276 318 21,000  Level Seattle Center
07:27 47.3911 -118.6783 93° East 271 312 21,000  Level Seattle Center
07:28 47.3864 -118.5647 93° East 275 316 21,000  Level Seattle Center
07:29 47.3833 -118.4544 92° East 272 313 21,000  Level Seattle Center
07:30 47.3786 -118.3425 94° East 274 315 21,000  Level Seattle Center
07:31 47.3753 -118.2342 93° East 268 308 21,000  Level Seattle Center
07:32 47.3708 -118.1228 93° East 272 313 21,000  Level Seattle Center
07:33 47.3656 -118.0125 94° East 270 311 21,000  Level Seattle Center
07:34 47.3597 -117.9022 94° East 271 312 21,000  Level Seattle Center
07:35 47.3558 -117.7894 93° East 275 316 21,000  Level Seattle Center
07:36 47.3506 -117.6783 94° East 274 315 21,000  Level Seattle Center
07:37 47.3461 -117.5664 93° East 274 315 21,000  Level Seattle Center
07:38 47.3417 -117.4567 93° East 273 314 21,000  Level Seattle Center
07:39 47.3372 -117.3456 93° East 273 314 21,000  Level Seattle Center
07:40 47.3317 -117.2344 94° East 274 315 21,000  Level Seattle Center
07:41 47.3267 -117.1233 94° East 275 316 21,000  Level Seattle Center
07:42 47.3211 -117.0119 94° East 276 318 21,000  Level Seattle Center
07:43 47.3153 -116.8781 94° East 276 318 21,000  Level Seattle Center
07:44 47.3094 -116.7661 94° East 276 318 21,000  Level Seattle Center
07:45 47.3039 -116.6531 94° East 278 320 21,000  Level Seattle Center
07:46 47.2983 -116.5406 94° East 277 319 21,000  Level Seattle Center
07:47 47.2925 -116.4286 94° East 276 318 21,000  Level Seattle Center
07:48 47.2864 -116.3156 95° East 278 320 21,000  Level Seattle Center
07:49 47.2800 -116.2042 95° East 275 316 21,000  Level Seattle Center
07:50 47.2736 -116.0931 95° East 274 315 21,000  Level Seattle Center
07:51 47.2681 -115.9819 94° East 274 315 21,000  Level Seattle Center
07:52 47.2608 -115.8681 95° East 277 319 21,000  Level Seattle Center
07:53 47.2547 -115.7567 95° East 275 316 21,000  Level Seattle Center
07:54 47.2494 -115.6517 94° East 270 311 21,000  Level Seattle Center
07:55 47.2414 -115.5369 96° East 276 318 21,000  Level Seattle Center
07:56 47.2344 -115.4247 95° East 276 318 21,000  Level Seattle Center
07:57 47.2278 -115.3128 95° East 276 318 21,000  Level Seattle Center
07:58 47.2211 -115.2008 95° East 276 318 21,000 -120 Level Seattle Center
07:59 47.2136 -115.0897 96° East 275 316 20,800 -780 Descending Seattle Center
08:00 47.2056 -114.9703 96° East 286 329 19,500 -1,440 Descending Seattle Center
08:01 47.1983 -114.8442 95° East 304 350 17,900 -1,440 Descending Seattle Center
08:02 47.1925 -114.7681 96° East 309 356 17,400 -1,140 Descending Salt Lake Center
08:03 47.1844 -114.6444 95° East 306 352 16,200 -1,500 Descending Salt Lake Center
08:04 47.1664 -114.5172 102° East 309 356 14,400 -2,040 Descending Salt Lake Center
08:05 47.1078 -114.4214 132° Southeast 319 367 12,200 -2,340 Descending Salt Lake Center
08:06 47.0533 -114.3303 131° Southeast 299 344 9,800 -2,580 Descending Salt Lake Center
08:07 47.0039 -114.2428 130° Southeast 283 326 7,100 -2,580 Descending Salt Lake Center
08:08 46.9600 -114.1672 130° Southeast 252 290 4,600 -1,800 Descending Salt Lake Center
08:09 46.9303 -114.1167 131° Southeast 162 186 3,500 -1,140 Descending Salt Lake Center
08:11 46.9163 -114.0906 146° Southeast  Level Estimated
08:18 46.9163 -114.0906 146° Southeast  Level Estimated